createdAt,value
2023-08-03T18:59:07.875Z,21.38
2023-08-03T19:01:34.866Z,21.33
2023-08-03T19:04:01.841Z,21.29
2023-08-03T19:06:29.216Z,21.25
2023-08-03T19:08:56.253Z,21.21
2023-08-03T19:11:23.200Z,21.19
2023-08-03T19:13:50.110Z,21.15
2023-08-03T19:16:17.152Z,21.14
2023-08-03T19:18:44.514Z,21.11
2023-08-03T19:21:13.098Z,21.13
2023-08-03T19:23:40.133Z,21.10
2023-08-03T19:26:08.820Z,21.07
2023-08-03T19:28:35.745Z,21.03
2023-08-03T19:31:03.226Z,21.02
2023-08-03T19:33:30.708Z,21.01
2023-08-03T19:35:57.627Z,20.99
2023-08-03T19:38:24.545Z,20.98
2023-08-03T19:40:54.504Z,20.94
2023-08-03T19:43:23.413Z,20.89
2023-08-03T19:45:50.586Z,20.84
2023-08-03T19:48:17.514Z,20.74
2023-08-03T19:56:35.950Z,20.48
2023-08-03T20:06:14.491Z,20.42
2023-08-03T20:11:11.837Z,20.40
2023-08-03T20:16:08.717Z,20.35
2023-08-03T20:18:35.618Z,20.33
2023-08-03T20:21:03.832Z,20.33
2023-08-03T20:23:31.123Z,20.31
2023-08-03T20:26:01.573Z,20.30
2023-08-03T20:28:28.748Z,20.27
2023-08-03T20:30:55.647Z,20.24
2023-08-03T20:33:24.528Z,20.22
2023-08-03T20:36:02.456Z,20.19
2023-08-03T20:43:31.062Z,20.11
2023-08-03T20:45:58.862Z,20.07
2023-08-03T20:50:58.579Z,20.02
2023-08-03T20:53:25.710Z,20.00
2023-08-03T20:55:52.892Z,20.01
2023-08-03T20:58:25.884Z,20.02
2023-08-03T21:00:54.318Z,20.01
2023-08-03T21:03:21.568Z,19.97
2023-08-03T21:05:50.852Z,19.95
2023-08-03T21:08:18.463Z,19.93
2023-08-03T21:13:17.662Z,19.84
2023-08-03T21:15:44.667Z,19.78
2023-08-03T21:20:41.364Z,19.69
2023-08-03T21:23:08.281Z,19.63
2023-08-03T21:25:35.165Z,19.58
2023-08-03T21:28:02.148Z,19.52
2023-08-03T21:30:29.155Z,19.53
2023-08-03T21:32:56.280Z,19.52
2023-08-03T21:35:23.234Z,19.51
2023-08-03T21:37:50.084Z,19.47
2023-08-03T21:40:17.020Z,19.42
2023-08-03T21:42:43.972Z,19.36
2023-08-03T21:45:11.348Z,19.37
2023-08-03T21:47:38.914Z,19.35
2023-08-03T21:50:06.581Z,19.29
2023-08-03T21:52:33.507Z,19.31
2023-08-03T21:55:00.424Z,19.27
2023-08-03T21:57:27.288Z,19.25
2023-08-03T21:59:54.220Z,19.22
2023-08-03T22:02:21.140Z,19.19
2023-08-03T22:04:48.140Z,19.14
2023-08-03T22:07:15.085Z,19.06
2023-08-03T22:09:41.991Z,19.02
2023-08-03T22:12:09.312Z,19.02
2023-08-03T22:14:36.283Z,18.99
2023-08-03T22:17:04.599Z,18.96
2023-08-03T22:19:31.531Z,18.94
2023-08-03T22:21:58.483Z,18.90
2023-08-03T22:24:25.353Z,18.86
2023-08-03T22:26:52.253Z,18.86
2023-08-03T22:29:19.132Z,18.87
2023-08-03T22:31:46.299Z,18.88
2023-08-03T22:34:13.362Z,18.90
2023-08-03T22:36:40.357Z,18.87
2023-08-03T22:39:07.283Z,18.87
2023-08-03T22:41:34.365Z,18.77
2023-08-03T22:44:01.428Z,18.72
2023-08-03T22:46:28.517Z,18.65
2023-08-03T22:48:55.696Z,18.60
2023-08-03T22:51:22.766Z,18.58
2023-08-03T22:53:49.827Z,18.62
2023-08-03T22:56:17.476Z,18.65
2023-08-03T22:58:44.792Z,18.64
2023-08-03T23:01:20.737Z,18.60
2023-08-03T23:03:49.770Z,18.61
2023-08-03T23:06:23.548Z,18.59
2023-08-03T23:08:51.461Z,18.61
2023-08-03T23:11:18.674Z,18.60
2023-08-03T23:13:45.617Z,18.60
2023-08-03T23:16:20.445Z,18.57
2023-08-03T23:18:47.653Z,18.55
2023-08-03T23:21:14.547Z,18.51
2023-08-03T23:23:41.477Z,18.48
2023-08-03T23:26:12.477Z,18.48
2023-08-03T23:28:39.890Z,18.47
2023-08-03T23:31:07.405Z,18.40
2023-08-03T23:33:34.697Z,18.34
2023-08-03T23:36:01.861Z,18.28
2023-08-03T23:38:29.703Z,18.23
2023-08-03T23:40:56.662Z,18.21
2023-08-03T23:43:23.560Z,18.19
2023-08-03T23:45:50.439Z,18.17
2023-08-03T23:48:17.410Z,18.17
2023-08-03T23:50:44.325Z,18.14
2023-08-03T23:53:11.211Z,18.14
2023-08-03T23:55:38.066Z,18.13
2023-08-03T23:58:04.948Z,18.08
